sensor_id;sensor_type;location;lat;lon;timestamp;pressure;altitude;pressure_sealevel;temperature;humidity
59787;BME280;45672;51.612;5.536;2023-03-31T00:02:16;100201.72;;;10.22;100.00
59787;BME280;45672;51.612;5.536;2023-03-31T00:04:46;100195.91;;;10.27;100.00
59787;BME280;45672;51.612;5.536;2023-03-31T00:07:18;100186.75;;;10.29;100.00
59787;BME280;45672;51.612;5.536;2023-03-31T00:09:47;100186.59;;;10.23;100.00
59787;BME280;45672;51.612;5.536;2023-03-31T00:12:13;100192.25;;;10.20;100.00
59787;BME280;45672;51.612;5.536;2023-03-31T00:14:40;100183.94;;;10.14;100.00
59787;BME280;45672;51.612;5.536;2023-03-31T00:17:06;100167.00;;;10.07;100.00
59787;BME280;45672;51.612;5.536;2023-03-31T00:19:31;100169.03;;;10.05;100.00
59787;BME280;45672;51.612;5.536;2023-03-31T00:21:57;100148.25;;;10.00;100.00
59787;BME280;45672;51.612;5.536;2023-03-31T00:24:26;100146.78;;;9.98;100.00
59787;BME280;45672;51.612;5.536;2023-03-31T00:26:51;100151.06;;;9.99;100.00
59787;BME280;45672;51.612;5.536;2023-03-31T00:29:17;100138.13;;;9.96;100.00
59787;BME280;45672;51.612;5.536;2023-03-31T00:31:42;100138.97;;;9.96;100.00
59787;BME280;45672;51.612;5.536;2023-03-31T00:34:07;100134.16;;;9.92;100.00
59787;BME280;45672;51.612;5.536;2023-03-31T00:36:33;100114.91;;;9.90;100.00
59787;BME280;45672;51.612;5.536;2023-03-31T00:39:03;100115.88;;;9.89;100.00
59787;BME280;45672;51.612;5.536;2023-03-31T00:41:35;100115.88;;;9.89;100.00
59787;BME280;45672;51.612;5.536;2023-03-31T00:44:22;100119.53;;;9.88;100.00
59787;BME280;45672;51.612;5.536;2023-03-31T00:49:36;100096.81;;;9.85;100.00
59787;BME280;45672;51.612;5.536;2023-03-31T00:52:14;100094.97;;;9.86;100.00
59787;BME280;45672;51.612;5.536;2023-03-31T00:54:43;100082.34;;;9.88;100.00
59787;BME280;45672;51.612;5.536;2023-03-31T00:57:10;100080.69;;;9.87;100.00
59787;BME280;45672;51.612;5.536;2023-03-31T00:59:39;100081.50;;;9.87;100.00
59787;BME280;45672;51.612;5.536;2023-03-31T01:02:07;100078.69;;;9.89;100.00
59787;BME280;45672;51.612;5.536;2023-03-31T01:04:37;100080.34;;;9.90;100.00
59787;BME280;45672;51.612;5.536;2023-03-31T01:07:17;100074.19;;;9.89;100.00
59787;BME280;45672;51.612;5.536;2023-03-31T01:09:44;100062.75;;;9.89;100.00
59787;BME280;45672;51.612;5.536;2023-03-31T01:12:12;100060.75;;;9.91;100.00
59787;BME280;45672;51.612;5.536;2023-03-31T01:14:39;100055.75;;;9.96;100.00
59787;BME280;45672;51.612;5.536;2023-03-31T01:17:05;100056.59;;;9.96;100.00
59787;BME280;45672;51.612;5.536;2023-03-31T01:19:50;100044.13;;;9.97;100.00
59787;BME280;45672;51.612;5.536;2023-03-31T01:22:44;100040.78;;;10.03;100.00
59787;BME280;45672;51.612;5.536;2023-03-31T01:34:09;100012.31;;;10.20;100.00
59787;BME280;45672;51.612;5.536;2023-03-31T01:37:03;100006.16;;;10.20;100.00
59787;BME280;45672;51.612;5.536;2023-03-31T01:40:03;99999.03;;;10.12;100.00
59787;BME280;45672;51.612;5.536;2023-03-31T01:42:36;99999.09;;;10.04;100.00
59787;BME280;45672;51.612;5.536;2023-03-31T01:47:42;99996.94;;;9.99;100.00
59787;BME280;45672;51.612;5.536;2023-03-31T01:50:17;99981.16;;;9.97;100.00
59787;BME280;45672;51.612;5.536;2023-03-31T01:52:50;99980.34;;;9.97;100.00
59787;BME280;45672;51.612;5.536;2023-03-31T01:55:34;99978.69;;;9.96;100.00
59787;BME280;45672;51.612;5.536;2023-03-31T01:58:14;99968.22;;;9.94;100.00
59787;BME280;45672;51.612;5.536;2023-03-31T02:00:58;99959.63;;;9.92;100.00
59787;BME280;45672;51.612;5.536;2023-03-31T02:03:36;99960.59;;;9.91;100.00
59787;BME280;45672;51.612;5.536;2023-03-31T02:06:11;99952.13;;;9.88;100.00
59787;BME280;45672;51.612;5.536;2023-03-31T02:08:44;99928.56;;;9.84;100.00
59787;BME280;45672;51.612;5.536;2023-03-31T02:11:10;99926.25;;;9.81;100.00
59787;BME280;45672;51.612;5.536;2023-03-31T02:13:38;99909.34;;;9.82;100.00
59787;BME280;45672;51.612;5.536;2023-03-31T02:16:09;99920.31;;;9.79;100.00
59787;BME280;45672;51.612;5.536;2023-03-31T02:18:36;99914.50;;;9.76;100.00
59787;BME280;45672;51.612;5.536;2023-03-31T02:21:06;99905.03;;;9.73;100.00
59787;BME280;45672;51.612;5.536;2023-03-31T02:23:35;99893.78;;;9.71;100.00
59787;BME280;45672;51.612;5.536;2023-03-31T02:26:09;99884.97;;;9.71;100.00
59787;BME280;45672;51.612;5.536;2023-03-31T02:28:36;99872.69;;;9.70;100.00
59787;BME280;45672;51.612;5.536;2023-03-31T02:31:26;99864.06;;;9.68;100.00
59787;BME280;45672;51.612;5.536;2023-03-31T02:33:53;99854.94;;;9.70;100.00
59787;BME280;45672;51.612;5.536;2023-03-31T02:36:18;99848.78;;;9.70;100.00
59787;BME280;45672;51.612;5.536;2023-03-31T02:38:50;99836.50;;;9.69;100.00
59787;BME280;45672;51.612;5.536;2023-03-31T02:41:17;99830.84;;;9.72;100.00
59787;BME280;45672;51.612;5.536;2023-03-31T02:43:43;99824.72;;;9.71;100.00
59787;BME280;45672;51.612;5.536;2023-03-31T02:46:08;99816.75;;;9.71;100.00
59787;BME280;45672;51.612;5.536;2023-03-31T02:48:40;99803.63;;;9.70;100.00
59787;BME280;45672;51.612;5.536;2023-03-31T02:54:04;99782.84;;;9.73;100.00
59787;BME280;45672;51.612;5.536;2023-03-31T03:05:00;99747.81;;;9.78;100.00
59787;BME280;45672;51.612;5.536;2023-03-31T03:07:54;99740.66;;;9.78;100.00
59787;BME280;45672;51.612;5.536;2023-03-31T03:13:18;99731.03;;;9.77;100.00
59787;BME280;45672;51.612;5.536;2023-03-31T03:15:51;99719.59;;;9.77;100.00
59787;BME280;45672;51.612;5.536;2023-03-31T03:18:19;99728.56;;;9.76;100.00
59787;BME280;45672;51.612;5.536;2023-03-31T03:20:44;99719.09;;;9.73;100.00
59787;BME280;45672;51.612;5.536;2023-03-31T03:23:15;99715.63;;;9.73;100.00
59787;BME280;45672;51.612;5.536;2023-03-31T03:25:41;99725.78;;;9.69;100.00
59787;BME280;45672;51.612;5.536;2023-03-31T03:28:06;99717.69;;;9.62;100.00
59787;BME280;45672;51.612;5.536;2023-03-31T03:30:31;99712.03;;;9.65;100.00
59787;BME280;45672;51.612;5.536;2023-03-31T03:32:57;99714.50;;;9.67;100.00
59787;BME280;45672;51.612;5.536;2023-03-31T03:35:23;99697.09;;;9.64;100.00
59787;BME280;45672;51.612;5.536;2023-03-31T03:37:48;99705.72;;;9.66;100.00
59787;BME280;45672;51.612;5.536;2023-03-31T03:40:14;99695.44;;;9.63;100.00
59787;BME280;45672;51.612;5.536;2023-03-31T03:42:39;99690.97;;;9.64;100.00
59787;BME280;45672;51.612;5.536;2023-03-31T03:45:05;99690.13;;;9.63;100.00
59787;BME280;45672;51.612;5.536;2023-03-31T03:47:31;99691.97;;;9.63;100.00
59787;BME280;45672;51.612;5.536;2023-03-31T03:49:57;99678.31;;;9.66;100.00
59787;BME280;45672;51.612;5.536;2023-03-31T03:52:22;99666.22;;;9.63;100.00
59787;BME280;45672;51.612;5.536;2023-03-31T03:54:47;99661.94;;;9.62;100.00
59787;BME280;45672;51.612;5.536;2023-03-31T03:57:13;99645.50;;;9.59;100.00
59787;BME280;45672;51.612;5.536;2023-03-31T03:59:38;99638.34;;;9.59;100.00
59787;BME280;45672;51.612;5.536;2023-03-31T04:02:03;99636.06;;;9.56;100.00
59787;BME280;45672;51.612;5.536;2023-03-31T04:04:29;99635.25;;;9.56;100.00
59787;BME280;45672;51.612;5.536;2023-03-31T04:06:54;99627.66;;;9.53;100.00
59787;BME280;45672;51.612;5.536;2023-03-31T04:09:19;99613.34;;;9.54;100.00
59787;BME280;45672;51.612;5.536;2023-03-31T04:11:45;99610.88;;;9.52;100.00
59787;BME280;45672;51.612;5.536;2023-03-31T04:14:10;99607.22;;;9.53;100.00
59787;BME280;45672;51.612;5.536;2023-03-31T04:16:35;99599.78;;;9.48;100.00
59787;BME280;45672;51.612;5.536;2023-03-31T04:19:02;99597.50;;;9.45;100.00
59787;BME280;45672;51.612;5.536;2023-03-31T04:21:29;99601.97;;;9.45;100.00
59787;BME280;45672;51.612;5.536;2023-03-31T04:23:59;99594.00;;;9.45;100.00
59787;BME280;45672;51.612;5.536;2023-03-31T04:26:30;99588.06;;;9.43;100.00
59787;BME280;45672;51.612;5.536;2023-03-31T04:29:04;99580.28;;;9.41;100.00
59787;BME280;45672;51.612;5.536;2023-03-31T04:31:31;99558.84;;;9.43;100.00
59787;BME280;45672;51.612;5.536;2023-03-31T04:33:57;99553.53;;;9.43;100.00
59787;BME280;45672;51.612;5.536;2023-03-31T04:36:27;99558.38;;;9.39;100.00
59787;BME280;45672;51.612;5.536;2023-03-31T04:38:53;99545.75;;;9.41;100.00
59787;BME280;45672;51.612;5.536;2023-03-31T04:41:19;99543.56;;;9.45;100.00
59787;BME280;45672;51.612;5.536;2023-03-31T04:43:45;99529.47;;;9.44;100.00
59787;BME280;45672;51.612;5.536;2023-03-31T04:46:10;99538.91;;;9.47;100.00
59787;BME280;45672;51.612;5.536;2023-03-31T04:48:35;99531.13;;;9.45;100.00
59787;BME280;45672;51.612;5.536;2023-03-31T04:51:01;99509.72;;;9.47;100.00
59787;BME280;45672;51.612;5.536;2023-03-31T04:53:26;99512.53;;;9.45;100.00
59787;BME280;45672;51.612;5.536;2023-03-31T04:55:52;99501.94;;;9.45;100.00
59787;BME280;45672;51.612;5.536;2023-03-31T04:58:18;99508.59;;;9.41;100.00
59787;BME280;45672;51.612;5.536;2023-03-31T05:00:43;99501.25;;;9.43;100.00
59787;BME280;45672;51.612;5.536;2023-03-31T05:03:08;99493.47;;;9.42;100.00
59787;BME280;45672;51.612;5.536;2023-03-31T05:05:34;99489.16;;;9.41;100.00
59787;BME280;45672;51.612;5.536;2023-03-31T05:08:00;99489.03;;;9.42;100.00
59787;BME280;45672;51.612;5.536;2023-03-31T05:10:26;99486.00;;;9.45;100.00
59787;BME280;45672;51.612;5.536;2023-03-31T05:12:51;99474.72;;;9.43;100.00
59787;BME280;45672;51.612;5.536;2023-03-31T05:15:16;99479.22;;;9.43;100.00
59787;BME280;45672;51.612;5.536;2023-03-31T05:17:42;99468.59;;;9.43;100.00
59787;BME280;45672;51.612;5.536;2023-03-31T05:20:08;99468.59;;;9.43;100.00
59787;BME280;45672;51.612;5.536;2023-03-31T05:22:37;99456.69;;;9.39;100.00
59787;BME280;45672;51.612;5.536;2023-03-31T05:25:04;99448.91;;;9.37;100.00
59787;BME280;45672;51.612;5.536;2023-03-31T05:27:30;99446.31;;;9.29;100.00
59787;BME280;45672;51.612;5.536;2023-03-31T05:29:56;99438.44;;;9.21;100.00
59787;BME280;45672;51.612;5.536;2023-03-31T05:32:21;99441.28;;;9.19;100.00
59787;BME280;45672;51.612;5.536;2023-03-31T05:34:46;99436.97;;;9.18;100.00
59787;BME280;45672;51.612;5.536;2023-03-31T05:37:13;99430.66;;;9.19;100.00
59787;BME280;45672;51.612;5.536;2023-03-31T05:39:39;99425.53;;;9.18;100.00
59787;BME280;45672;51.612;5.536;2023-03-31T05:42:04;99423.53;;;9.20;100.00
59787;BME280;45672;51.612;5.536;2023-03-31T05:44:31;99429.19;;;9.17;100.00
59787;BME280;45672;51.612;5.536;2023-03-31T05:46:57;99415.72;;;9.18;100.00
59787;BME280;45672;51.612;5.536;2023-03-31T05:49:22;99416.75;;;9.17;100.00
59787;BME280;45672;51.612;5.536;2023-03-31T05:51:47;99411.47;;;9.17;100.00
59787;BME280;45672;51.612;5.536;2023-03-31T05:54:13;99397.16;;;9.18;100.00
59787;BME280;45672;51.612;5.536;2023-03-31T05:56:38;99406.34;;;9.16;100.00
59787;BME280;45672;51.612;5.536;2023-03-31T05:59:04;99410.44;;;9.18;100.00
59787;BME280;45672;51.612;5.536;2023-03-31T06:01:29;99413.91;;;9.19;100.00
59787;BME280;45672;51.612;5.536;2023-03-31T06:03:55;99405.13;;;9.18;100.00
59787;BME280;45672;51.612;5.536;2023-03-31T06:06:21;99403.03;;;9.13;100.00
59787;BME280;45672;51.612;5.536;2023-03-31T06:08:47;99401.84;;;9.16;100.00
59787;BME280;45672;51.612;5.536;2023-03-31T06:11:15;99408.13;;;9.15;100.00
59787;BME280;45672;51.612;5.536;2023-03-31T06:13:41;99393.06;;;9.16;100.00
59787;BME280;45672;51.612;5.536;2023-03-31T06:16:09;99391.03;;;9.18;100.00
59787;BME280;45672;51.612;5.536;2023-03-31T06:18:35;99394.50;;;9.18;100.00
59787;BME280;45672;51.612;5.536;2023-03-31T06:21:01;99401.66;;;9.18;100.00
59787;BME280;45672;51.612;5.536;2023-03-31T06:23:26;99387.94;;;9.14;100.00
59787;BME280;45672;51.612;5.536;2023-03-31T06:25:52;99373.81;;;9.13;100.00
59787;BME280;45672;51.612;5.536;2023-03-31T06:28:18;99384.91;;;9.17;100.00
59787;BME280;45672;51.612;5.536;2023-03-31T06:30:44;99370.63;;;9.18;100.00
59787;BME280;45672;51.612;5.536;2023-03-31T06:33:09;99373.13;;;9.20;100.00
59787;BME280;45672;51.612;5.536;2023-03-31T06:35:39;99373.19;;;9.26;100.00
59787;BME280;45672;51.612;5.536;2023-03-31T06:38:05;99376.31;;;9.30;100.00
59787;BME280;45672;51.612;5.536;2023-03-31T06:40:31;99365.34;;;9.33;100.00
59787;BME280;45672;51.612;5.536;2023-03-31T06:42:57;99375.38;;;9.38;100.00
59787;BME280;45672;51.612;5.536;2023-03-31T06:45:22;99369.56;;;9.42;100.00
59787;BME280;45672;51.612;5.536;2023-03-31T06:47:48;99363.22;;;9.43;100.00
59787;BME280;45672;51.612;5.536;2023-03-31T06:50:13;99357.53;;;9.46;100.00
59787;BME280;45672;51.612;5.536;2023-03-31T06:52:38;99351.03;;;9.49;100.00
59787;BME280;45672;51.612;5.536;2023-03-31T06:55:05;99340.41;;;9.49;100.00
59787;BME280;45672;51.612;5.536;2023-03-31T06:57:31;99342.72;;;9.37;100.00
59787;BME280;45672;51.612;5.536;2023-03-31T06:59:58;99344.09;;;9.33;100.00
59787;BME280;45672;51.612;5.536;2023-03-31T07:02:23;99345.94;;;9.32;100.00
59787;BME280;45672;51.612;5.536;2023-03-31T07:04:49;99344.09;;;9.33;100.00
59787;BME280;45672;51.612;5.536;2023-03-31T07:07:14;99352.06;;;9.33;100.00
59787;BME280;45672;51.612;5.536;2023-03-31T07:09:39;99342.44;;;9.32;100.00
59787;BME280;45672;51.612;5.536;2023-03-31T07:12:05;99356.81;;;9.38;100.00
59787;BME280;45672;51.612;5.536;2023-03-31T07:14:31;99367.00;;;9.34;100.00
59787;BME280;45672;51.612;5.536;2023-03-31T07:16:56;99352.44;;;9.30;100.00
59787;BME280;45672;51.612;5.536;2023-03-31T07:19:22;99334.09;;;9.35;100.00
59787;BME280;45672;51.612;5.536;2023-03-31T07:21:47;99320.50;;;9.38;100.00
59787;BME280;45672;51.612;5.536;2023-03-31T07:24:13;99309.88;;;9.38;100.00
59787;BME280;45672;51.612;5.536;2023-03-31T07:26:38;99319.75;;;9.44;100.00
59787;BME280;45672;51.612;5.536;2023-03-31T07:29:03;99315.06;;;9.46;100.00
59787;BME280;45672;51.612;5.536;2023-03-31T07:31:29;99313.44;;;9.45;100.00
59787;BME280;45672;51.612;5.536;2023-03-31T07:33:54;99324.25;;;9.44;100.00
59787;BME280;45672;51.612;5.536;2023-03-31T07:36:20;99322.41;;;9.44;100.00
59787;BME280;45672;51.612;5.536;2023-03-31T07:38:46;99309.94;;;9.45;100.00
59787;BME280;45672;51.612;5.536;2023-03-31T07:41:15;99306.47;;;9.44;100.00
59787;BME280;45672;51.612;5.536;2023-03-31T07:43:41;99305.47;;;9.45;100.00
59787;BME280;45672;51.612;5.536;2023-03-31T07:46:13;99306.09;;;9.47;100.00
59787;BME280;45672;51.612;5.536;2023-03-31T07:48:38;99296.75;;;9.52;100.00
59787;BME280;45672;51.612;5.536;2023-03-31T07:51:04;99294.91;;;9.52;100.00
59787;BME280;45672;51.612;5.536;2023-03-31T07:53:29;99292.91;;;9.54;100.00
59787;BME280;45672;51.612;5.536;2023-03-31T07:55:55;99296.63;;;9.60;100.00
59787;BME280;45672;51.612;5.536;2023-03-31T07:58:20;99305.69;;;9.65;100.00
59787;BME280;45672;51.612;5.536;2023-03-31T08:00:46;99293.22;;;9.66;100.00
59787;BME280;45672;51.612;5.536;2023-03-31T08:03:11;99289.00;;;9.72;100.00
59787;BME280;45672;51.612;5.536;2023-03-31T08:05:36;99294.38;;;9.78;100.00
59787;BME280;45672;51.612;5.536;2023-03-31T08:08:01;99289.34;;;9.83;100.00
59787;BME280;45672;51.612;5.536;2023-03-31T08:10:27;99284.09;;;9.90;100.00
59787;BME280;45672;51.612;5.536;2023-03-31T08:12:52;99273.66;;;9.89;100.00
59787;BME280;45672;51.612;5.536;2023-03-31T08:15:18;99284.16;;;9.97;100.00
59787;BME280;45672;51.612;5.536;2023-03-31T08:17:44;99289.47;;;9.97;100.00
59787;BME280;45672;51.612;5.536;2023-03-31T08:20:10;99279.66;;;9.97;100.00
59787;BME280;45672;51.612;5.536;2023-03-31T08:22:37;99271.06;;;9.95;100.00
59787;BME280;45672;51.612;5.536;2023-03-31T08:25:04;99281.78;;;9.65;100.00
59787;BME280;45672;51.612;5.536;2023-03-31T08:27:33;99277.16;;;9.53;100.00
59787;BME280;45672;51.612;5.536;2023-03-31T08:29:59;99271.66;;;9.54;100.00
59787;BME280;45672;51.612;5.536;2023-03-31T08:32:29;99271.16;;;9.65;100.00
59787;BME280;45672;51.612;5.536;2023-03-31T08:34:54;99264.38;;;9.78;100.00
59787;BME280;45672;51.612;5.536;2023-03-31T08:37:20;99282.88;;;9.93;100.00
59787;BME280;45672;51.612;5.536;2023-03-31T08:39:45;99278.19;;;9.95;100.00
59787;BME280;45672;51.612;5.536;2023-03-31T08:42:19;99266.38;;;9.97;100.00
59787;BME280;45672;51.612;5.536;2023-03-31T08:45:22;99266.56;;;9.96;100.00
59787;BME280;45672;51.612;5.536;2023-03-31T08:47:52;99272.72;;;9.96;100.00
59787;BME280;45672;51.612;5.536;2023-03-31T08:50:23;99266.81;;;10.01;100.00
59787;BME280;45672;51.612;5.536;2023-03-31T08:52:58;99264.41;;;10.06;100.00
59787;BME280;45672;51.612;5.536;2023-03-31T08:55:36;99259.03;;;9.99;100.00
59787;BME280;45672;51.612;5.536;2023-03-31T09:01:14;99265.06;;;10.08;100.00
59787;BME280;45672;51.612;5.536;2023-03-31T09:09:00;99256.06;;;10.09;100.00
59787;BME280;45672;51.612;5.536;2023-03-31T09:11:42;99255.22;;;10.09;100.00
59787;BME280;45672;51.612;5.536;2023-03-31T09:16:47;99249.72;;;10.32;100.00
59787;BME280;45672;51.612;5.536;2023-03-31T09:22:16;99244.13;;;10.48;100.00
59787;BME280;45672;51.612;5.536;2023-03-31T09:24:55;99235.22;;;10.63;100.00
59787;BME280;45672;51.612;5.536;2023-03-31T09:27:25;99232.84;;;10.75;100.00
59787;BME280;45672;51.612;5.536;2023-03-31T09:32:24;99226.53;;;10.82;100.00
59787;BME280;45672;51.612;5.536;2023-03-31T09:34:58;99238.97;;;10.75;100.00
59787;BME280;45672;51.612;5.536;2023-03-31T09:37:29;99228.63;;;10.59;100.00
59787;BME280;45672;51.612;5.536;2023-03-31T09:39:57;99225.63;;;10.62;100.00
59787;BME280;45672;51.612;5.536;2023-03-31T09:42:23;99235.38;;;10.55;100.00
59787;BME280;45672;51.612;5.536;2023-03-31T09:44:49;99234.88;;;10.44;100.00
59787;BME280;45672;51.612;5.536;2023-03-31T09:47:38;99228.09;;;10.70;100.00
59787;BME280;45672;51.612;5.536;2023-03-31T09:50:05;99225.53;;;10.83;100.00
59787;BME280;45672;51.612;5.536;2023-03-31T09:52:34;99233.09;;;10.86;100.00
59787;BME280;45672;51.612;5.536;2023-03-31T09:55:05;99217.78;;;10.95;100.00
59787;BME280;45672;51.612;5.536;2023-03-31T09:57:35;99235.47;;;11.10;100.00
59787;BME280;45672;51.612;5.536;2023-03-31T10:03:02;99223.25;;;11.29;100.00
59787;BME280;45672;51.612;5.536;2023-03-31T10:05:34;99214.50;;;11.42;100.00
59787;BME280;45672;51.612;5.536;2023-03-31T10:10:49;99227.44;;;11.51;100.00
59787;BME280;45672;51.612;5.536;2023-03-31T10:13:17;99224.19;;;11.63;100.00
59787;BME280;45672;51.612;5.536;2023-03-31T10:15:43;99215.13;;;11.64;100.00
59787;BME280;45672;51.612;5.536;2023-03-31T10:18:17;99216.78;;;11.58;100.00
59787;BME280;45672;51.612;5.536;2023-03-31T10:20:52;99208.78;;;11.51;100.00
59787;BME280;45672;51.612;5.536;2023-03-31T10:23:22;99201.19;;;11.48;100.00
59787;BME280;45672;51.612;5.536;2023-03-31T10:25:49;99227.16;;;11.39;100.00
59787;BME280;45672;51.612;5.536;2023-03-31T10:28:17;99206.25;;;11.30;100.00
59787;BME280;45672;51.612;5.536;2023-03-31T10:30:50;99205.63;;;11.28;100.00
59787;BME280;45672;51.612;5.536;2023-03-31T10:33:21;99203.63;;;11.36;100.00
59787;BME280;45672;51.612;5.536;2023-03-31T10:35:54;99197.06;;;11.39;100.00
59787;BME280;45672;51.612;5.536;2023-03-31T10:38:33;99199.97;;;11.44;100.00
59787;BME280;45672;51.612;5.536;2023-03-31T10:40:59;99204.47;;;11.50;100.00
59787;BME280;45672;51.612;5.536;2023-03-31T10:43:52;99193.41;;;11.53;100.00
59787;BME280;45672;51.612;5.536;2023-03-31T10:46:18;99204.88;;;11.54;100.00
59787;BME280;45672;51.612;5.536;2023-03-31T10:48:44;99195.44;;;11.45;100.00
59787;BME280;45672;51.612;5.536;2023-03-31T10:51:17;99196.63;;;11.35;100.00
59787;BME280;45672;51.612;5.536;2023-03-31T10:53:48;99193.97;;;11.35;100.00
59787;BME280;45672;51.612;5.536;2023-03-31T11:04:23;99187.91;;;11.68;100.00
59787;BME280;45672;51.612;5.536;2023-03-31T11:09:41;99177.44;;;11.73;100.00
59787;BME280;45672;51.612;5.536;2023-03-31T11:22:30;99178.84;;;11.36;100.00
59787;BME280;45672;51.612;5.536;2023-03-31T11:25:32;99167.78;;;11.39;100.00
59787;BME280;45672;51.612;5.536;2023-03-31T11:33:51;99166.19;;;11.71;100.00
59787;BME280;45672;51.612;5.536;2023-03-31T11:39:01;99146.72;;;11.98;100.00
59787;BME280;45672;51.612;5.536;2023-03-31T11:41:36;99156.16;;;12.14;100.00
59787;BME280;45672;51.612;5.536;2023-03-31T11:44:07;99152.03;;;12.24;100.00
59787;BME280;45672;51.612;5.536;2023-03-31T11:46:56;99152.84;;;12.38;100.00
59787;BME280;45672;51.612;5.536;2023-03-31T11:49:30;99147.50;;;12.45;99.16
59787;BME280;45672;51.612;5.536;2023-03-31T11:52:10;99137.84;;;12.37;96.41
59787;BME280;45672;51.612;5.536;2023-03-31T11:54:44;99134.81;;;12.27;97.53
59787;BME280;45672;51.612;5.536;2023-03-31T11:57:19;99144.69;;;12.13;96.86
59787;BME280;45672;51.612;5.536;2023-03-31T11:59:52;99143.03;;;12.19;98.71
59787;BME280;45672;51.612;5.536;2023-03-31T12:02:32;99142.00;;;12.27;94.41
59787;BME280;45672;51.612;5.536;2023-03-31T12:05:03;99147.50;;;12.38;91.64
59787;BME280;45672;51.612;5.536;2023-03-31T12:07:36;99142.78;;;12.40;92.21
59787;BME280;45672;51.612;5.536;2023-03-31T12:12:48;99120.19;;;12.56;88.22
59787;BME280;45672;51.612;5.536;2023-03-31T12:17:44;99119.66;;;12.80;86.46
59787;BME280;45672;51.612;5.536;2023-03-31T12:20:29;99111.81;;;12.91;88.95
59787;BME280;45672;51.612;5.536;2023-03-31T12:22:57;99124.13;;;12.92;85.57
59787;BME280;45672;51.612;5.536;2023-03-31T12:25:23;99119.59;;;12.93;85.11
59787;BME280;45672;51.612;5.536;2023-03-31T12:27:51;99130.13;;;12.88;84.56
59787;BME280;45672;51.612;5.536;2023-03-31T12:30:29;99100.53;;;12.89;84.71
59787;BME280;45672;51.612;5.536;2023-03-31T12:33:11;99098.66;;;12.97;86.19
59787;BME280;45672;51.612;5.536;2023-03-31T12:36:01;99102.09;;;13.04;86.76
59787;BME280;45672;51.612;5.536;2023-03-31T12:38:40;99096.72;;;13.10;83.62
59787;BME280;45672;51.612;5.536;2023-03-31T12:43:57;99107.75;;;13.21;83.33
59787;BME280;45672;51.612;5.536;2023-03-31T12:52:01;99090.19;;;13.32;83.01
59787;BME280;45672;51.612;5.536;2023-03-31T12:57:18;99077.72;;;13.25;84.95
59787;BME280;45672;51.612;5.536;2023-03-31T12:59:45;99058.72;;;13.08;82.48
59787;BME280;45672;51.612;5.536;2023-03-31T13:04:40;99071.09;;;13.03;85.00
59787;BME280;45672;51.612;5.536;2023-03-31T13:09:49;99054.63;;;12.74;88.98
59787;BME280;45672;51.612;5.536;2023-03-31T13:12:20;99053.84;;;12.67;90.29
59787;BME280;45672;51.612;5.536;2023-03-31T13:14:49;99038.53;;;12.42;91.85
59787;BME280;45672;51.612;5.536;2023-03-31T13:17:34;99064.41;;;12.35;95.75
59787;BME280;45672;51.612;5.536;2023-03-31T13:20:32;99050.78;;;12.04;98.42
59787;BME280;45672;51.612;5.536;2023-03-31T13:25:45;99040.97;;;11.31;100.00
59787;BME280;45672;51.612;5.536;2023-03-31T13:28:32;99055.50;;;11.15;100.00
59787;BME280;45672;51.612;5.536;2023-03-31T13:31:06;99038.69;;;11.08;100.00
59787;BME280;45672;51.612;5.536;2023-03-31T13:36:09;99048.97;;;11.25;100.00
59787;BME280;45672;51.612;5.536;2023-03-31T13:58:17;99042.41;;;11.94;100.00
59787;BME280;45672;51.612;5.536;2023-03-31T14:06:43;99033.38;;;11.75;100.00
59787;BME280;45672;51.612;5.536;2023-03-31T14:11:45;99039.34;;;11.50;100.00
59787;BME280;45672;51.612;5.536;2023-03-31T14:16:39;99034.00;;;11.44;100.00
59787;BME280;45672;51.612;5.536;2023-03-31T14:19:14;99034.41;;;11.34;100.00
59787;BME280;45672;51.612;5.536;2023-03-31T14:21:49;99014.16;;;11.19;100.00
59787;BME280;45672;51.612;5.536;2023-03-31T14:24:32;99020.91;;;11.15;100.00
59787;BME280;45672;51.612;5.536;2023-03-31T14:27:22;99022.13;;;11.06;100.00
59787;BME280;45672;51.612;5.536;2023-03-31T14:30:09;99016.81;;;11.19;100.00
59787;BME280;45672;51.612;5.536;2023-03-31T14:38:34;99007.38;;;11.24;100.00
59787;BME280;45672;51.612;5.536;2023-03-31T14:40:59;99006.16;;;11.19;100.00
59787;BME280;45672;51.612;5.536;2023-03-31T14:43:38;99004.31;;;11.13;100.00
59787;BME280;45672;51.612;5.536;2023-03-31T14:46:09;99013.09;;;11.07;100.00
59787;BME280;45672;51.612;5.536;2023-03-31T14:48:44;99007.38;;;11.03;100.00
59787;BME280;45672;51.612;5.536;2023-03-31T14:51:13;99003.28;;;11.01;100.00
59787;BME280;45672;51.612;5.536;2023-03-31T14:53:39;99005.31;;;11.06;100.00
59787;BME280;45672;51.612;5.536;2023-03-31T14:56:07;98997.75;;;11.02;100.00
59787;BME280;45672;51.612;5.536;2023-03-31T14:58:36;99004.09;;;10.95;100.00
59787;BME280;45672;51.612;5.536;2023-03-31T15:01:04;99012.28;;;10.86;100.00
59787;BME280;45672;51.612;5.536;2023-03-31T15:03:32;99002.44;;;10.74;100.00
59787;BME280;45672;51.612;5.536;2023-03-31T15:05:59;99011.78;;;10.63;100.00
59787;BME280;45672;51.612;5.536;2023-03-31T15:08:26;99002.81;;;10.64;100.00
59787;BME280;45672;51.612;5.536;2023-03-31T15:10:57;99000.97;;;10.58;100.00
59787;BME280;45672;51.612;5.536;2023-03-31T15:13:34;99003.63;;;10.58;100.00
59787;BME280;45672;51.612;5.536;2023-03-31T15:16:32;99010.78;;;10.64;100.00
59787;BME280;45672;51.612;5.536;2023-03-31T15:19:04;99013.84;;;10.61;100.00
59787;BME280;45672;51.612;5.536;2023-03-31T15:21:36;99012.44;;;10.65;100.00
59787;BME280;45672;51.612;5.536;2023-03-31T15:24:03;99007.69;;;10.60;100.00
59787;BME280;45672;51.612;5.536;2023-03-31T15:26:33;99012.63;;;10.63;100.00
59787;BME280;45672;51.612;5.536;2023-03-31T15:29:20;98997.13;;;10.80;100.00
59787;BME280;45672;51.612;5.536;2023-03-31T15:31:49;98999.16;;;10.85;100.00
59787;BME280;45672;51.612;5.536;2023-03-31T15:34:20;99002.44;;;10.94;100.00